Time;durP1;ratioP1;P1;durP2;ratioP2;P2;SDS_P1;SDS_P2;PMS_P1;PMS_P2;Temp;Humidity;BMP_temperature;BMP_pressure;BME280_temperature;BME280_humidity;BME280_pressure;Samples;Min_cycle;Max_cycle;Signal;HPM_P1;HPM_P2
2022/01/25 00:08:53;;;;;;;36.05;13.95;;;0.70;99.90;;;;;;5075411;28;20108;-64
2022/01/25 00:27:51;;;;;;;37.08;14.50;;;0.70;99.90;;;;;;5055874;28;20036;-64
2022/01/25 00:32:49;;;;;;;38.58;14.35;;;0.70;99.90;;;;;;5055806;28;20039;-64
2022/01/25 00:35:15;;;;;;;41.78;16.38;;;0.70;99.90;;;;;;5037791;28;20029;-64
2022/01/25 00:37:40;;;;;;;53.78;17.52;;;0.80;99.90;;;;;;5055430;28;20480;-64
2022/01/25 00:40:06;;;;;;;41.25;16.02;;;1.20;99.90;;;;;;5037785;28;20027;-64
2022/01/25 00:42:32;;;;;;;44.30;15.52;;;0.80;99.90;;;;;;5055324;28;20032;-64
2022/01/25 00:44:58;;;;;;;44.47;15.18;;;0.80;99.90;;;;;;5055274;28;20102;-64
2022/01/25 00:47:25;;;;;;;37.85;13.65;;;0.80;99.90;;;;;;5055517;28;20048;-64
2022/01/25 00:49:53;;;;;;;45.42;15.55;;;0.80;99.90;;;;;;5055716;28;20078;-64
2022/01/25 00:54:46;;;;;;;43.80;15.10;;;0.70;99.90;;;;;;5055347;28;20029;-64
2022/01/25 00:57:12;;;;;;;41.17;15.10;;;1.50;99.90;;;;;;5055095;28;20111;-64
2022/01/25 00:59:37;;;;;;;42.00;15.10;;;0.80;99.90;;;;;;5055558;28;20437;-64
2022/01/25 01:02:09;;;;;;;47.60;15.63;;;0.70;99.90;;;;;;5055206;28;20070;-64
2022/01/25 01:04:35;;;;;;;46.10;13.85;;;0.70;99.90;;;;;;5055322;28;20036;-64
2022/01/25 01:07:06;;;;;;;52.63;16.80;;;1.10;99.90;;;;;;5055415;28;20043;-64
2022/01/25 01:09:34;;;;;;;44.78;14.48;;;0.70;99.90;;;;;;5055127;28;20045;-64
2022/01/25 01:12:06;;;;;;;39.88;12.05;;;0.70;99.90;;;;;;5055064;28;20021;-64
2022/01/25 01:17:32;;;;;;;47.20;16.40;;;0.70;99.90;;;;;;5055160;28;20044;-64
2022/01/25 01:31:05;;;;;;;46.53;15.48;;;0.80;99.90;;;;;;5054737;28;20503;-64
2022/01/25 01:33:58;;;;;;;47.75;15.43;;;0.80;99.90;;;;;;5036709;28;20090;-64
2022/01/25 01:39:45;;;;;;;38.63;14.73;;;0.80;99.90;;;;;;5054572;28;20469;-64
2022/01/25 01:45:04;;;;;;;46.17;15.18;;;0.80;99.90;;;;;;5054464;28;20129;-64
2022/01/25 01:47:47;;;;;;;41.95;14.30;;;0.80;99.90;;;;;;5053840;28;20064;-64
2022/01/25 01:50:25;;;;;;;39.42;14.48;;;0.80;99.90;;;;;;5054120;28;20380;-64
2022/01/25 01:52:52;;;;;;;42.08;14.48;;;1.50;99.90;;;;;;5036450;28;20059;-64
2022/01/25 01:55:18;;;;;;;35.80;14.70;;;0.80;99.90;;;;;;5053849;28;20102;-64
2022/01/25 01:57:43;;;;;;;39.78;13.88;;;0.80;99.90;;;;;;5036233;28;20465;-64
2022/01/25 02:00:10;;;;;;;40.67;14.23;;;0.80;99.90;;;;;;5054334;28;20066;-64
2022/01/25 02:02:36;;;;;;;44.67;15.85;;;0.80;99.90;;;;;;5036206;28;20496;-64
2022/01/25 02:05:02;;;;;;;43.58;15.18;;;0.80;99.90;;;;;;5054059;28;20033;-64
2022/01/25 02:07:27;;;;;;;32.75;12.27;;;0.80;99.90;;;;;;5036194;28;20033;-64
2022/01/25 02:09:53;;;;;;;35.17;13.30;;;0.80;99.90;;;;;;5054079;28;20491;-64
2022/01/25 02:12:19;;;;;;;34.75;13.13;;;0.80;99.90;;;;;;5053973;28;20025;-64
2022/01/25 02:14:47;;;;;;;39.22;13.80;;;0.80;99.90;;;;;;5036043;28;20037;-64
2022/01/25 02:22:25;;;;;;;32.55;12.45;;;0.80;99.90;;;;;;5036427;28;20033;-64
2022/01/25 02:23:01;;;;;;;33.03;12.30;;;0.80;99.90;;;;;;5053916;28;20036;-64
2022/01/25 02:25:27;;;;;;;30.95;11.60;;;0.90;99.90;;;;;;5053750;28;20036;-64
2022/01/25 02:27:52;;;;;;;34.88;14.07;;;1.10;99.90;;;;;;5053810;28;20420;-64
2022/01/25 02:30:19;;;;;;;37.60;13.57;;;0.90;99.90;;;;;;5053949;28;20047;-64
2022/01/25 02:32:45;;;;;;;38.92;13.40;;;1.00;99.90;;;;;;5053804;28;20028;-64
2022/01/25 02:35:11;;;;;;;28.25;11.70;;;0.90;99.90;;;;;;5053648;28;20032;-64
2022/01/25 02:37:40;;;;;;;32.15;12.25;;;0.80;99.90;;;;;;5053611;28;20035;-64
2022/01/25 02:40:07;;;;;;;35.55;14.05;;;1.80;99.90;;;;;;5053381;28;20032;-64
2022/01/25 02:42:32;;;;;;;36.50;13.75;;;0.80;99.90;;;;;;5053356;28;20029;-64
2022/01/25 02:44:58;;;;;;;35.90;12.77;;;0.90;99.90;;;;;;5053593;28;20373;-64
2022/01/25 02:50:08;;;;;;;34.25;13.57;;;0.90;99.90;;;;;;5057781;28;20032;-64
2022/01/25 02:52:35;;;;;;;35.53;13.45;;;0.90;99.90;;;;;;5057675;28;20025;-64
2022/01/25 02:55:01;;;;;;;36.30;12.65;;;0.90;99.90;;;;;;5057298;28;20381;-64
2022/01/25 02:57:27;;;;;;;39.13;14.63;;;1.00;99.90;;;;;;5057175;28;20029;-64
2022/01/25 02:59:52;;;;;;;28.85;11.75;;;0.90;99.90;;;;;;5057563;28;20025;-65
2022/01/25 03:02:18;;;;;;;33.38;13.20;;;1.50;99.90;;;;;;5039564;28;20384;-64
2022/01/25 03:04:44;;;;;;;34.22;12.68;;;1.00;99.90;;;;;;5039519;28;20036;-64
2022/01/25 03:07:10;;;;;;;31.75;11.55;;;1.70;99.90;;;;;;5057376;28;20040;-64
2022/01/25 03:09:37;;;;;;;38.13;12.40;;;1.00;99.90;;;;;;5057289;28;20048;-64
2022/01/25 03:12:06;;;;;;;33.70;12.23;;;1.10;99.90;;;;;;5057581;28;20021;-65
2022/01/25 03:14:32;;;;;;;35.60;12.18;;;1.00;99.90;;;;;;5057544;28;20025;-64
2022/01/25 03:22:15;;;;;;;32.42;11.82;;;1.00;99.90;;;;;;5057148;28;20024;-64
2022/01/25 03:24:41;;;;;;;41.53;13.10;;;1.00;99.90;;;;;;5057181;28;20064;-64
2022/01/25 03:27:07;;;;;;;34.83;12.95;;;1.00;99.90;;;;;;5039106;28;20479;-64
2022/01/25 03:29:33;;;;;;;29.15;12.48;;;1.00;99.90;;;;;;5056665;28;20532;-64
2022/01/25 03:31:59;;;;;;;37.10;12.65;;;1.00;99.90;;;;;;5039108;28;20056;-65
2022/01/25 03:34:24;;;;;;;41.22;13.82;;;1.00;99.90;;;;;;5039154;28;20461;-64
2022/01/25 03:36:50;;;;;;;39.33;12.55;;;1.00;99.90;;;;;;5056899;28;20033;-64
2022/01/25 03:39:16;;;;;;;36.47;12.35;;;1.00;99.90;;;;;;5056548;28;20043;-65
2022/01/25 03:41:42;;;;;;;29.27;11.60;;;1.00;99.90;;;;;;5056491;28;20025;-64
2022/01/25 03:44:08;;;;;;;32.40;12.68;;;1.10;99.90;;;;;;5056389;28;20374;-64
2022/01/25 03:51:49;;;;;;;31.65;12.00;;;1.10;99.90;;;;;;5056373;28;20083;-64
2022/01/25 03:54:15;;;;;;;33.58;11.82;;;1.10;99.90;;;;;;5056515;28;20146;-64
2022/01/25 03:56:41;;;;;;;29.77;11.25;;;1.10;99.90;;;;;;5056044;28;20033;-64
2022/01/25 03:59:07;;;;;;;36.47;13.60;;;1.10;99.90;;;;;;5055406;28;20032;-65
2022/01/25 04:01:34;;;;;;;34.63;12.80;;;1.10;99.90;;;;;;5038469;28;20511;-64
2022/01/25 04:04:07;;;;;;;38.78;13.00;;;1.80;99.90;;;;;;5056322;28;20032;-64
2022/01/25 04:06:35;;;;;;;39.72;14.05;;;1.10;99.90;;;;;;5056430;28;20032;-65
2022/01/25 04:09:03;;;;;;;36.85;11.73;;;1.10;99.90;;;;;;5037993;28;20068;-65
2022/01/25 04:11:29;;;;;;;35.28;12.88;;;1.10;99.90;;;;;;5056253;28;20025;-64
2022/01/25 04:13:57;;;;;;;32.13;11.25;;;1.10;99.90;;;;;;5056091;28;20035;-64
2022/01/25 04:16:29;;;;;;;41.17;13.25;;;1.10;99.90;;;;;;5056031;28;20033;-64
2022/01/25 04:19:04;;;;;;;38.38;13.80;;;1.10;99.90;;;;;;5056075;28;20025;-64
2022/01/25 04:24:38;;;;;;;35.00;12.82;;;1.10;99.90;;;;;;5056051;28;20027;-64
2022/01/25 04:27:00;;;;;;;34.55;12.32;;;1.10;99.90;;;;;;5056076;28;20032;-64
2022/01/25 04:29:26;;;;;;;31.05;11.73;;;1.40;99.90;;;;;;5055910;28;20029;-64
2022/01/25 04:31:52;;;;;;;32.63;11.60;;;1.20;99.90;;;;;;5037859;28;20021;-65
2022/01/25 04:50:16;;;;;;;41.55;14.18;;;1.40;99.90;;;;;;5055463;28;20216;-64
2022/01/25 04:52:57;;;;;;;39.22;13.43;;;1.10;99.90;;;;;;5037865;28;20123;-64
2022/01/25 04:55:31;;;;;;;33.78;11.27;;;1.10;99.90;;;;;;5037814;28;20021;-64
2022/01/25 04:58:05;;;;;;;38.08;13.32;;;1.10;99.90;;;;;;5055355;28;20037;-64
2022/01/25 05:00:32;;;;;;;42.38;13.95;;;1.10;99.90;;;;;;5037587;28;20075;-64
2022/01/25 05:03:08;;;;;;;39.25;12.73;;;1.20;99.90;;;;;;5055595;28;20031;-64
2022/01/25 05:05:51;;;;;;;38.20;14.20;;;1.20;99.90;;;;;;5055201;28;20126;-64
2022/01/25 05:08:29;;;;;;;40.35;14.18;;;1.20;99.90;;;;;;5055010;28;20036;-64
2022/01/25 05:11:09;;;;;;;42.17;13.77;;;1.20;99.90;;;;;;5071488;28;20053;-64
2022/01/25 05:16:15;;;;;;;38.53;12.38;;;1.20;99.90;;;;;;5074830;28;20388;-64
2022/01/25 05:18:46;;;;;;;43.72;13.60;;;1.20;99.90;;;;;;5074967;28;20162;-64
2022/01/25 05:23:56;;;;;;;32.50;11.52;;;1.20;99.90;;;;;;5074818;28;20674;-64
2022/01/25 05:26:24;;;;;;;34.08;12.95;;;1.30;99.90;;;;;;5074469;28;20146;-64
2022/01/25 05:28:49;;;;;;;41.10;13.20;;;1.20;99.90;;;;;;5074678;28;20024;-64
2022/01/25 05:31:15;;;;;;;38.10;13.07;;;1.20;99.90;;;;;;5074642;28;20028;-66
2022/01/25 05:33:41;;;;;;;39.65;13.40;;;1.30;99.90;;;;;;5074617;28;20423;-64
2022/01/25 05:36:07;;;;;;;38.53;11.93;;;1.30;99.90;;;;;;5074453;28;20040;-64
2022/01/25 05:38:32;;;;;;;32.28;11.68;;;1.20;99.90;;;;;;5073147;28;20035;-64
2022/01/25 05:41:01;;;;;;;35.97;11.93;;;1.20;99.90;;;;;;5074382;28;20024;-63
2022/01/25 05:48:38;;;;;;;31.77;11.48;;;1.20;99.90;;;;;;5074372;28;20020;-64
2022/01/25 05:51:04;;;;;;;29.58;11.73;;;1.20;99.90;;;;;;5074532;28;20025;-64
2022/01/25 05:53:31;;;;;;;34.35;11.10;;;1.20;99.90;;;;;;5073707;28;20031;-64
2022/01/25 05:55:57;;;;;;;27.88;11.95;;;1.20;99.90;;;;;;5074116;28;20036;-63
2022/01/25 05:58:23;;;;;;;33.97;11.90;;;1.20;99.90;;;;;;5072880;28;20024;-64
2022/01/25 06:00:49;;;;;;;33.78;12.10;;;1.40;99.90;;;;;;5074104;28;20089;-63
2022/01/25 06:03:15;;;;;;;41.80;14.30;;;1.30;99.90;;;;;;5072838;28;20461;-63
2022/01/25 06:05:41;;;;;;;42.00;14.02;;;1.30;99.90;;;;;;5074318;28;20464;-65
2022/01/25 06:08:06;;;;;;;42.38;13.32;;;1.20;99.90;;;;;;5074212;28;20070;-64
2022/01/25 06:10:33;;;;;;;36.65;12.68;;;1.30;99.90;;;;;;5058774;28;20077;-64
2022/01/25 06:12:59;;;;;;;38.45;14.02;;;1.90;99.90;;;;;;5053870;28;20029;-64
2022/01/25 06:15:25;;;;;;;37.90;13.00;;;1.30;99.90;;;;;;5053823;28;20032;-64
2022/01/25 06:17:51;;;;;;;38.20;13.98;;;1.30;99.90;;;;;;5036177;28;20037;-63
2022/01/25 06:20:17;;;;;;;38.15;13.20;;;1.20;99.90;;;;;;5034913;28;20076;-64
2022/01/25 06:22:43;;;;;;;34.67;13.75;;;1.30;99.90;;;;;;5053940;28;20075;-64
2022/01/25 06:25:10;;;;;;;29.20;11.70;;;1.30;99.90;;;;;;5064874;28;20028;-64
2022/01/25 06:27:39;;;;;;;34.65;12.55;;;1.30;99.90;;;;;;5053291;28;20390;-64
2022/01/25 06:30:07;;;;;;;37.22;13.60;;;1.40;99.90;;;;;;5055819;28;20395;-64
2022/01/25 06:32:39;;;;;;;42.57;13.00;;;1.30;99.90;;;;;;5055946;28;20052;-64
2022/01/25 06:35:06;;;;;;;36.67;12.55;;;1.30;99.90;;;;;;5073572;28;20036;-65
2022/01/25 06:37:32;;;;;;;42.50;13.18;;;1.30;99.90;;;;;;5073741;28;20043;-64
2022/01/25 06:39:58;;;;;;;35.67;12.07;;;1.30;99.90;;;;;;5073657;28;20025;-64
2022/01/25 06:42:28;;;;;;;31.85;11.57;;;1.30;99.90;;;;;;5073269;28;20074;-63
2022/01/25 06:44:57;;;;;;;30.65;11.68;;;1.30;99.90;;;;;;5073692;28;20055;-64
2022/01/25 06:47:23;;;;;;;34.30;12.40;;;1.30;99.90;;;;;;5055618;28;20388;-64
2022/01/25 06:49:49;;;;;;;30.45;11.55;;;1.30;99.90;;;;;;5073693;28;20024;-64
2022/01/25 06:52:14;;;;;;;31.52;11.77;;;1.30;99.90;;;;;;5073628;28;20506;-64
2022/01/25 06:54:40;;;;;;;34.17;11.55;;;1.30;99.90;;;;;;5073737;28;20024;-64
2022/01/25 06:57:06;;;;;;;26.52;10.55;;;1.30;99.90;;;;;;5073362;28;20044;-64
2022/01/25 06:59:32;;;;;;;26.52;10.43;;;1.30;99.90;;;;;;5055486;28;20024;-64
2022/01/25 07:01:58;;;;;;;25.83;10.00;;;1.30;99.90;;;;;;5073402;28;20090;-64
2022/01/25 07:04:23;;;;;;;24.02;9.48;;;1.50;99.90;;;;;;5073706;28;20028;-64
2022/01/25 07:06:49;;;;;;;28.38;10.77;;;1.40;99.90;;;;;;5073032;28;20029;-64
2022/01/25 07:09:15;;;;;;;26.25;9.95;;;1.40;99.90;;;;;;5073034;28;20052;-64
2022/01/25 07:11:40;;;;;;;30.52;11.43;;;1.90;99.90;;;;;;5073496;28;20024;-64
2022/01/25 07:14:06;;;;;;;28.27;9.38;;;1.40;99.90;;;;;;5072917;28;20068;-64
2022/01/25 07:16:32;;;;;;;28.75;11.05;;;1.50;99.90;;;;;;5072109;28;20090;-64
2022/01/25 07:18:57;;;;;;;26.27;10.50;;;1.40;99.90;;;;;;5059287;28;20052;-64
2022/01/25 07:21:23;;;;;;;34.05;11.77;;;1.40;99.90;;;;;;5041438;28;20495;-64
2022/01/25 07:23:49;;;;;;;24.40;9.70;;;1.40;99.90;;;;;;5064142;28;20025;-67
2022/01/25 07:26:15;;;;;;;30.63;10.18;;;1.40;99.90;;;;;;5055201;28;20051;-64
2022/01/25 07:28:41;;;;;;;22.73;9.13;;;1.40;99.90;;;;;;5057064;28;20025;-64
2022/01/25 07:31:06;;;;;;;24.90;8.98;;;1.40;99.90;;;;;;5035094;28;20025;-64
2022/01/25 07:33:32;;;;;;;27.30;9.98;;;1.50;99.90;;;;;;5070118;28;20032;-64
2022/01/25 07:35:58;;;;;;;22.13;8.70;;;1.50;99.90;;;;;;5076268;28;20033;-65
2022/01/25 07:38:24;;;;;;;24.17;9.10;;;1.50;99.90;;;;;;5053102;28;20127;-64
2022/01/25 07:40:49;;;;;;;21.75;8.50;;;1.50;99.90;;;;;;5077070;28;20086;-64
2022/01/25 07:43:15;;;;;;;25.73;9.85;;;1.50;99.90;;;;;;5058379;28;20079;-64
2022/01/25 07:45:42;;;;;;;23.33;8.75;;;1.50;99.90;;;;;;5076899;28;20024;-64
2022/01/25 07:48:10;;;;;;;26.60;9.50;;;1.50;99.90;;;;;;5076860;28;20424;-64
2022/01/25 07:50:37;;;;;;;17.50;7.53;;;1.60;99.90;;;;;;5076560;28;20029;-64
2022/01/25 07:53:03;;;;;;;19.70;8.23;;;1.60;99.90;;;;;;5076765;28;20033;-64
2022/01/25 07:55:28;;;;;;;20.52;8.10;;;2.20;99.90;;;;;;5058215;28;20375;-64
2022/01/25 07:57:54;;;;;;;21.58;7.97;;;1.60;99.90;;;;;;5076345;28;20043;-64
2022/01/25 08:00:20;;;;;;;16.45;6.68;;;1.60;99.90;;;;;;5058504;28;20032;-64
2022/01/25 08:02:47;;;;;;;15.10;7.03;;;1.70;99.90;;;;;;5076311;28;20103;-64
2022/01/25 08:05:18;;;;;;;17.25;6.82;;;1.60;99.90;;;;;;5059044;28;20398;-64
2022/01/25 08:07:44;;;;;;;17.00;7.10;;;1.60;99.90;;;;;;5076473;28;20116;-64
2022/01/25 08:10:11;;;;;;;16.95;7.93;;;1.60;99.90;;;;;;5075855;28;20048;-64
2022/01/25 08:12:37;;;;;;;12.13;6.18;;;1.60;99.90;;;;;;5058168;28;20081;-64
2022/01/25 08:15:05;;;;;;;17.27;7.28;;;1.70;99.90;;;;;;5076675;28;20370;-64
2022/01/25 08:17:31;;;;;;;18.93;7.70;;;1.70;99.90;;;;;;5075784;28;20502;-64
2022/01/25 08:19:57;;;;;;;10.32;5.07;;;1.70;99.90;;;;;;5075730;28;20104;-64
2022/01/25 08:22:24;;;;;;;12.40;5.70;;;1.80;99.90;;;;;;5075889;28;20024;-64
2022/01/25 08:24:50;;;;;;;12.20;5.18;;;1.80;99.90;;;;;;5076037;28;20024;-64
2022/01/25 08:27:20;;;;;;;10.60;5.47;;;1.70;99.90;;;;;;5075620;28;20112;-63
2022/01/25 08:29:46;;;;;;;14.32;5.50;;;1.80;99.90;;;;;;5057972;28;20032;-64
2022/01/25 08:32:12;;;;;;;13.52;5.95;;;1.80;99.90;;;;;;5057762;28;20457;-64
2022/01/25 08:34:38;;;;;;;12.32;5.25;;;1.80;99.90;;;;;;5075444;28;20028;-64
2022/01/25 08:37:04;;;;;;;11.40;5.25;;;1.80;99.90;;;;;;5075618;28;20029;-64
2022/01/25 08:39:29;;;;;;;11.18;4.93;;;1.80;99.90;;;;;;5075619;28;20104;-64
2022/01/25 08:41:55;;;;;;;15.45;5.70;;;1.90;99.90;;;;;;5057706;28;20486;-65
2022/01/25 08:44:21;;;;;;;11.45;4.85;;;1.90;99.90;;;;;;5056863;28;20440;-64
2022/01/25 08:46:47;;;;;;;15.25;6.40;;;1.90;99.90;;;;;;5075430;28;20392;-64
2022/01/25 08:49:12;;;;;;;15.63;6.38;;;1.90;99.90;;;;;;5075192;28;20023;-64
2022/01/25 08:51:38;;;;;;;13.45;5.95;;;1.90;99.90;;;;;;5075414;28;20040;-64
2022/01/25 08:54:05;;;;;;;11.32;5.20;;;1.90;99.90;;;;;;5075232;28;20056;-64
2022/01/25 08:56:30;;;;;;;16.45;6.78;;;2.10;99.90;;;;;;5075243;28;20043;-64
2022/01/25 08:58:57;;;;;;;16.42;5.45;;;2.80;99.90;;;;;;5075907;28;20368;-68
2022/01/25 09:01:23;;;;;;;12.43;5.15;;;1.90;99.90;;;;;;5074901;28;20032;-67
2022/01/25 09:03:49;;;;;;;11.38;4.88;;;2.80;99.90;;;;;;5075434;28;20032;-64
2022/01/25 09:06:15;;;;;;;11.93;4.75;;;2.60;99.90;;;;;;5075296;28;20105;-66
2022/01/25 09:08:41;;;;;;;13.07;5.38;;;2.00;99.90;;;;;;5056903;28;20063;-65
2022/01/25 09:11:07;;;;;;;11.27;4.90;;;1.90;99.90;;;;;;5057053;28;20032;-63
2022/01/25 09:13:33;;;;;;;10.65;4.57;;;1.80;99.90;;;;;;5057031;28;20468;-66
2022/01/25 09:16:01;;;;;;;15.02;5.18;;;1.90;99.90;;;;;;5057523;28;20032;-66
2022/01/25 09:18:27;;;;;;;13.07;5.40;;;1.80;99.90;;;;;;5074861;28;20021;-71
2022/01/25 09:20:53;;;;;;;14.63;5.50;;;1.70;99.90;;;;;;5056908;28;20091;-65
2022/01/25 09:23:20;;;;;;;12.70;5.90;;;1.70;99.90;;;;;;5074999;28;20025;-65
2022/01/25 09:25:47;;;;;;;13.65;4.85;;;1.70;99.90;;;;;;5074744;28;20028;-72
2022/01/25 09:28:13;;;;;;;15.32;5.18;;;1.70;99.90;;;;;;5074729;28;20025;-73
2022/01/25 09:30:58;;;;;;;16.58;6.07;;;2.20;99.90;;;;;;5074651;28;20024;-73
2022/01/25 09:33:25;;;;;;;14.15;5.97;;;1.80;99.90;;;;;;5074660;28;20032;-72
2022/01/25 09:35:52;;;;;;;12.45;5.65;;;1.80;99.90;;;;;;5074489;28;20028;-67
2022/01/25 09:38:18;;;;;;;12.55;5.55;;;3.00;99.90;;;;;;5074561;28;20039;-68
2022/01/25 09:40:45;;;;;;;12.38;5.00;;;1.80;99.90;;;;;;5074591;28;20146;-67
2022/01/25 09:43:11;;;;;;;11.00;4.95;;;1.80;99.90;;;;;;5056602;28;20365;-66
2022/01/25 09:45:37;;;;;;;10.75;4.75;;;1.80;99.90;;;;;;5074374;28;20020;-65
2022/01/25 09:48:05;;;;;;;14.40;5.32;;;1.90;99.90;;;;;;5074365;28;20055;-65
2022/01/25 09:50:31;;;;;;;12.27;4.82;;;1.90;99.90;;;;;;5056412;28;20121;-65
2022/01/25 09:52:59;;;;;;;11.73;4.70;;;1.90;99.90;;;;;;5056790;28;20162;-66
2022/01/25 09:55:26;;;;;;;10.80;4.28;;;1.90;99.90;;;;;;5056224;28;20430;-66
2022/01/25 09:57:52;;;;;;;11.55;4.60;;;2.00;99.90;;;;;;5074071;28;20038;-65
2022/01/25 10:00:22;;;;;;;12.73;5.10;;;2.00;99.90;;;;;;5056186;28;20029;-65
2022/01/25 10:03:42;;;;;;;10.55;5.05;;;2.00;99.90;;;;;;5074119;28;20079;-65
2022/01/25 10:05:43;;;;;;;13.07;4.50;;;2.00;99.90;;;;;;5062730;28;20051;-65
2022/01/25 10:08:23;;;;;;;10.57;4.63;;;2.00;99.90;;;;;;5074014;28;20111;-65
2022/01/25 10:10:55;;;;;;;12.93;5.60;;;2.00;99.90;;;;;;5073647;28;20127;-65
2022/01/25 10:13:25;;;;;;;11.82;4.63;;;2.30;99.90;;;;;;5074046;28;20020;-65
2022/01/25 10:16:01;;;;;;;11.55;5.10;;;2.10;99.90;;;;;;5070261;28;20104;-65
2022/01/25 10:18:58;;;;;;;14.05;5.53;;;2.10;99.90;;;;;;5069842;28;20016;-65
2022/01/25 10:21:31;;;;;;;10.70;5.07;;;2.00;99.90;;;;;;5049112;28;20082;-66
2022/01/25 10:24:02;;;;;;;13.48;5.13;;;2.00;99.90;;;;;;5061112;28;20025;-65
2022/01/25 10:26:52;;;;;;;12.38;5.03;;;2.10;99.90;;;;;;5053817;28;20033;-65
2022/01/25 10:29:25;;;;;;;12.80;4.55;;;2.10;99.90;;;;;;5029066;28;20388;-66
2022/01/25 10:31:58;;;;;;;19.50;7.72;;;1.90;99.90;;;;;;5035834;28;20025;-65
2022/01/25 10:34:30;;;;;;;18.50;8.07;;;1.90;99.90;;;;;;5039595;28;20028;-66
2022/01/25 10:36:57;;;;;;;23.60;9.90;;;1.90;99.90;;;;;;5053661;28;20063;-66
2022/01/25 10:39:26;;;;;;;12.38;5.63;;;1.90;99.90;;;;;;5037022;28;20028;-65
2022/01/25 10:41:52;;;;;;;15.35;5.75;;;1.90;99.90;;;;;;5050456;28;20028;-65
2022/01/25 10:44:17;;;;;;;18.25;5.05;;;1.90;99.90;;;;;;5068929;28;20491;-66
2022/01/25 10:46:43;;;;;;;14.15;5.35;;;1.80;99.90;;;;;;5053504;28;20137;-66
2022/01/25 10:49:12;;;;;;;15.65;5.57;;;1.80;99.90;;;;;;5053619;28;20413;-66
2022/01/25 10:51:44;;;;;;;10.93;4.88;;;1.90;99.90;;;;;;5053484;28;20029;-66
2022/01/25 10:54:13;;;;;;;10.05;4.70;;;1.90;99.90;;;;;;5053706;28;20113;-66
2022/01/25 10:56:56;;;;;;;16.50;5.32;;;1.90;99.90;;;;;;5035483;28;20029;-66
2022/01/25 10:59:36;;;;;;;12.35;5.43;;;2.10;99.90;;;;;;5035604;28;20362;-66
2022/01/25 11:02:05;;;;;;;12.90;5.18;;;2.00;99.90;;;;;;5035684;28;20116;-66
2022/01/25 11:04:34;;;;;;;;;;;2.00;99.90;;;;;;5053876;28;20037;-66
2022/01/25 11:07:01;;;;;;;15.82;5.93;;;2.00;99.90;;;;;;5054482;28;19913;-66
2022/01/25 11:09:34;;;;;;;13.95;5.75;;;2.00;99.90;;;;;;5057281;28;20048;-66
2022/01/25 11:12:00;;;;;;;16.13;5.60;;;2.10;99.90;;;;;;5057305;28;20120;-66
2022/01/25 11:17:10;;;;;;;10.63;5.10;;;2.10;99.90;;;;;;5056982;28;20151;-66
2022/01/25 11:19:36;;;;;;;12.93;5.57;;;2.20;99.90;;;;;;5039639;28;20416;-68
2022/01/25 11:22:02;;;;;;;10.88;4.85;;;2.30;99.90;;;;;;5057217;28;20036;-69
2022/01/25 11:24:31;;;;;;;12.43;5.45;;;2.20;99.90;;;;;;5056896;28;20025;-66
2022/01/25 11:27:01;;;;;;;15.50;4.97;;;2.20;99.90;;;;;;5057151;28;20032;-66
2022/01/25 11:29:27;;;;;;;10.30;4.18;;;2.10;99.90;;;;;;5057096;28;20056;-66
2022/01/25 11:32:01;;;;;;;12.98;5.57;;;2.10;99.90;;;;;;5057512;28;20083;-66
2022/01/25 11:34:28;;;;;;;9.98;4.68;;;2.10;99.90;;;;;;5057110;28;20076;-66
2022/01/25 11:37:10;;;;;;;13.30;5.40;;;2.30;99.90;;;;;;5056590;28;20028;-66
2022/01/25 11:39:42;;;;;;;8.60;4.07;;;2.10;99.90;;;;;;5057023;28;20032;-66
2022/01/25 11:42:10;;;;;;;10.43;4.30;;;2.10;99.90;;;;;;5056792;28;20074;-66
2022/01/25 11:44:45;;;;;;;14.88;5.60;;;2.00;99.90;;;;;;5056727;28;20039;-66
2022/01/25 11:47:15;;;;;;;11.43;4.95;;;2.00;99.90;;;;;;5056423;28;20098;-66
2022/01/25 11:49:57;;;;;;;12.45;5.38;;;2.40;99.90;;;;;;5039255;28;20032;-66
2022/01/25 11:52:27;;;;;;;10.70;5.30;;;2.10;99.90;;;;;;5039020;28;20478;-66
2022/01/25 11:55:14;;;;;;;12.60;4.57;;;2.10;99.90;;;;;;5056820;28;20017;-66
2022/01/25 11:57:56;;;;;;;10.65;4.47;;;2.10;99.90;;;;;;5041828;28;20378;-66
2022/01/25 12:00:37;;;;;;;11.05;4.65;;;2.10;99.90;;;;;;5056662;28;20029;-66
2022/01/25 12:03:18;;;;;;;15.45;5.82;;;2.10;99.90;;;;;;5056472;28;20060;-66
2022/01/25 12:06:09;;;;;;;11.02;5.60;;;2.10;99.90;;;;;;5038491;28;20021;-66
2022/01/25 12:09:05;;;;;;;14.65;5.00;;;2.10;99.90;;;;;;5056512;28;20033;-65
2022/01/25 12:11:39;;;;;;;15.98;5.80;;;2.10;99.90;;;;;;5055246;28;20037;-66
2022/01/25 12:14:14;;;;;;;12.95;5.55;;;2.10;99.90;;;;;;5055398;28;20064;-66
2022/01/25 12:17:02;;;;;;;15.27;5.82;;;2.10;99.90;;;;;;5056104;28;20037;-66
2022/01/25 12:19:31;;;;;;;15.98;5.78;;;2.10;99.90;;;;;;5054635;28;20060;-66
2022/01/25 12:22:04;;;;;;;13.63;5.85;;;2.10;99.90;;;;;;5054662;28;20499;-66
2022/01/25 12:24:50;;;;;;;12.20;5.82;;;2.10;99.90;;;;;;5055923;28;20025;-66
2022/01/25 12:29:46;;;;;;;10.77;5.63;;;2.10;99.90;;;;;;5055883;28;20117;-66
2022/01/25 12:32:30;;;;;;;16.73;5.93;;;2.10;99.90;;;;;;5055508;28;20112;-66
2022/01/25 12:35:19;;;;;;;15.52;6.88;;;2.10;99.90;;;;;;5071724;28;20297;-66
2022/01/25 12:37:45;;;;;;;14.60;6.45;;;2.10;99.90;;;;;;5055521;28;20033;-66
2022/01/25 12:40:26;;;;;;;17.00;6.78;;;2.20;99.90;;;;;;5054459;28;20465;-66
2022/01/25 12:43:00;;;;;;;11.27;5.38;;;2.10;99.90;;;;;;5054214;28;20021;-65
2022/01/25 12:45:31;;;;;;;17.08;6.80;;;2.10;99.90;;;;;;5055686;28;20411;-65
2022/01/25 12:48:05;;;;;;;17.50;6.80;;;2.10;99.90;;;;;;5055874;28;20021;-65
2022/01/25 12:50:31;;;;;;;18.08;7.57;;;2.10;99.90;;;;;;5054196;28;20079;-65
2022/01/25 12:53:03;;;;;;;14.90;6.32;;;2.10;99.90;;;;;;5055470;28;20028;-64
2022/01/25 12:55:31;;;;;;;16.27;7.35;;;2.10;99.90;;;;;;5055050;28;20058;-65
2022/01/25 12:57:57;;;;;;;12.80;5.97;;;2.10;99.90;;;;;;5055207;28;20102;-65
2022/01/25 13:00:32;;;;;;;13.65;7.00;;;2.20;99.90;;;;;;5055197;28;20111;-65
2022/01/25 13:03:16;;;;;;;17.85;6.55;;;2.20;99.90;;;;;;5055385;28;20029;-65
2022/01/25 13:05:47;;;;;;;15.77;6.78;;;2.20;99.90;;;;;;5055971;28;20025;-65
2022/01/25 13:08:16;;;;;;;15.88;6.75;;;2.20;99.90;;;;;;5056344;28;20035;-65
2022/01/25 13:10:41;;;;;;;16.08;7.10;;;2.30;99.90;;;;;;5054987;28;20378;-65
2022/01/25 13:13:27;;;;;;;11.07;5.78;;;2.20;99.90;;;;;;5037553;28;20124;-65
2022/01/25 13:15:56;;;;;;;12.80;6.30;;;2.40;99.90;;;;;;5055668;28;20017;-65
2022/01/25 13:18:27;;;;;;;13.63;6.38;;;2.30;99.90;;;;;;5055261;28;20109;-65
2022/01/25 13:21:03;;;;;;;13.57;5.97;;;2.20;99.90;;;;;;5053724;28;20033;-65
2022/01/25 13:23:29;;;;;;;17.42;6.72;;;2.30;99.90;;;;;;5054836;28;20036;-66
2022/01/25 13:26:06;;;;;;;12.88;5.85;;;2.30;99.90;;;;;;5036927;28;20033;-65
2022/01/25 13:30:57;;;;;;;14.93;7.30;;;2.30;99.90;;;;;;5054650;28;20032;-65
2022/01/25 13:33:23;;;;;;;16.77;6.18;;;2.30;99.90;;;;;;5054669;28;20134;-64
2022/01/25 13:35:56;;;;;;;15.32;7.63;;;2.30;99.90;;;;;;5036657;28;20044;-65
2022/01/25 13:38:41;;;;;;;19.65;7.80;;;2.30;99.90;;;;;;5036886;28;20029;-65
2022/01/25 13:46:33;;;;;;;15.73;6.55;;;2.30;99.90;;;;;;5054498;28;20032;-65
2022/01/25 13:49:17;;;;;;;15.38;6.20;;;2.30;99.90;;;;;;5054113;28;20036;-63
2022/01/25 13:51:45;;;;;;;16.45;6.40;;;2.30;99.90;;;;;;5036438;28;20032;-64
2022/01/25 13:54:17;;;;;;;20.58;6.95;;;2.30;99.90;;;;;;5054643;28;20056;-64
2022/01/25 13:56:44;;;;;;;16.65;7.00;;;2.40;99.90;;;;;;5054351;28;20098;-64
2022/01/25 13:59:10;;;;;;;14.48;6.25;;;2.40;99.90;;;;;;5054374;28;20103;-64
2022/01/25 14:01:38;;;;;;;15.73;6.30;;;2.40;99.90;;;;;;5036337;28;20052;-65
2022/01/25 14:04:19;;;;;;;19.58;7.20;;;2.30;99.90;;;;;;5054598;28;20021;-64
2022/01/25 14:06:51;;;;;;;14.25;6.70;;;2.30;99.90;;;;;;5054160;28;20040;-64
2022/01/25 14:09:27;;;;;;;15.10;6.53;;;2.40;99.90;;;;;;5053991;28;20045;-64
2022/01/25 14:25:46;;;;;;;16.48;7.45;;;2.30;99.90;;;;;;5053566;28;20033;-64
2022/01/25 14:28:23;;;;;;;15.88;6.93;;;2.30;99.90;;;;;;5035872;28;20029;-64
2022/01/25 14:30:52;;;;;;;17.00;6.70;;;2.30;99.90;;;;;;5036436;28;20025;-65
2022/01/25 14:33:22;;;;;;;16.23;7.10;;;2.30;99.90;;;;;;5054069;28;20032;-64
2022/01/25 14:35:56;;;;;;;17.20;7.75;;;2.50;99.90;;;;;;5035663;28;20460;-64
2022/01/25 14:38:30;;;;;;;18.30;7.45;;;2.30;99.90;;;;;;5035737;28;20492;-64
2022/01/25 14:41:30;;;;;;;24.70;7.60;;;2.30;99.90;;;;;;5063699;28;20047;-64
2022/01/25 14:44:05;;;;;;;17.40;6.78;;;2.30;99.90;;;;;;5032594;28;20048;-64
2022/01/25 14:46:36;;;;;;;17.83;6.90;;;2.30;99.90;;;;;;5068219;28;20028;-64
2022/01/25 14:49:20;;;;;;;16.30;7.70;;;2.30;99.90;;;;;;5073303;28;20036;-65
2022/01/25 14:51:51;;;;;;;18.65;7.45;;;2.30;99.90;;;;;;5050777;28;20488;-64
2022/01/25 14:54:19;;;;;;;23.60;7.60;;;2.30;99.90;;;;;;5053583;28;20028;-64
2022/01/25 14:56:50;;;;;;;19.13;7.05;;;2.20;99.90;;;;;;5035612;28;20033;-64